createdAt,value
2022-10-12T00:00:03.197Z,3.22
2022-10-12T00:02:31.095Z,3.65
2022-10-12T00:04:58.947Z,3.20
2022-10-12T00:07:26.719Z,3.45
2022-10-12T00:09:54.519Z,3.45
2022-10-12T00:12:23.835Z,3.17
2022-10-12T00:14:51.692Z,4.13
2022-10-12T00:17:19.695Z,3.50
2022-10-12T00:19:47.638Z,4.25
2022-10-12T00:22:15.369Z,3.42
2022-10-12T00:24:43.263Z,4.80
2022-10-12T00:27:11.463Z,3.22
2022-10-12T00:29:40.832Z,3.00
2022-10-12T00:32:09.345Z,2.85
2022-10-12T00:34:37.287Z,3.08
2022-10-12T00:37:05.057Z,3.33
2022-10-12T00:39:32.803Z,3.42
2022-10-12T00:42:00.802Z,2.90
2022-10-12T00:44:36.063Z,2.88
2022-10-12T00:47:10.956Z,3.00
2022-10-12T00:49:38.794Z,2.50
2022-10-12T00:52:11.699Z,3.28
2022-10-12T00:54:44.427Z,3.28
2022-10-12T00:57:15.925Z,2.75
2022-10-12T00:59:48.814Z,2.88
2022-10-12T01:02:18.840Z,2.53
2022-10-12T01:04:46.854Z,2.88
2022-10-12T01:07:15.234Z,2.60
2022-10-12T01:09:43.378Z,3.33
2022-10-12T01:12:11.770Z,3.58
2022-10-12T01:14:39.515Z,4.00
2022-10-12T01:17:19.167Z,2.95
2022-10-12T01:20:23.726Z,3.42
2022-10-12T01:23:05.290Z,3.33
2022-10-12T01:25:52.270Z,3.58
2022-10-12T01:28:31.253Z,2.97
2022-10-12T01:31:08.944Z,3.70
2022-10-12T01:33:40.771Z,4.40
2022-10-12T01:36:14.803Z,4.10
2022-10-12T01:38:49.710Z,3.55
2022-10-12T01:41:22.818Z,3.78
2022-10-12T01:43:52.553Z,3.83
2022-10-12T01:46:45.855Z,3.10
2022-10-12T01:49:16.632Z,3.53
2022-10-12T01:52:16.716Z,4.20
2022-10-12T01:55:03.107Z,3.03
2022-10-12T01:57:41.732Z,3.67
2022-10-12T02:00:12.046Z,3.42
2022-10-12T02:02:53.516Z,4.03
2022-10-12T02:05:37.377Z,3.97
2022-10-12T02:08:11.740Z,3.33
2022-10-12T02:10:43.186Z,3.83
2022-10-12T02:13:14.625Z,3.95
2022-10-12T02:15:44.798Z,3.70
2022-10-12T02:18:19.127Z,3.92
2022-10-12T02:20:48.905Z,3.35
2022-10-12T02:23:18.104Z,3.83
2022-10-12T02:25:47.555Z,3.13
2022-10-12T02:28:17.938Z,3.30
2022-10-12T02:30:50.963Z,2.80
2022-10-12T02:33:27.248Z,3.10
2022-10-12T02:35:59.873Z,3.30
2022-10-12T02:38:33.737Z,2.67
2022-10-12T02:41:05.256Z,2.92
2022-10-12T02:43:38.908Z,3.10
2022-10-12T02:46:09.358Z,2.58
2022-10-12T02:48:41.064Z,2.33
2022-10-12T02:51:11.739Z,2.90
2022-10-12T02:53:40.493Z,2.80
2022-10-12T02:56:12.114Z,2.72
2022-10-12T02:58:40.025Z,2.70
2022-10-12T03:01:08.252Z,2.90
2022-10-12T03:03:36.178Z,2.55
2022-10-12T03:06:05.983Z,2.10
2022-10-12T03:08:33.907Z,1.98
2022-10-12T03:11:03.137Z,2.85
2022-10-12T03:13:31.047Z,2.40
2022-10-12T03:16:02.994Z,1.90
2022-10-12T03:18:31.009Z,1.42
2022-10-12T03:20:59.041Z,1.23
2022-10-12T03:23:28.447Z,2.03
2022-10-12T03:25:56.272Z,1.38
2022-10-12T03:28:24.135Z,1.42
2022-10-12T03:30:52.109Z,1.48
2022-10-12T03:33:20.208Z,1.30
2022-10-12T03:35:48.479Z,1.33
2022-10-12T03:38:17.357Z,1.13
2022-10-12T03:40:47.280Z,1.63
2022-10-12T03:43:15.100Z,1.40
2022-10-12T03:45:43.185Z,1.90
2022-10-12T03:48:11.406Z,1.30
2022-10-12T03:50:40.188Z,2.00
2022-10-12T03:53:08.551Z,1.85
2022-10-12T03:55:36.524Z,1.65
2022-10-12T03:58:05.617Z,1.98
2022-10-12T04:00:33.641Z,1.63
2022-10-12T04:03:02.097Z,1.77
2022-10-12T04:05:29.969Z,1.73
2022-10-12T04:07:58.157Z,1.98
2022-10-12T04:10:26.153Z,2.50
2022-10-12T04:12:53.948Z,2.20
2022-10-12T04:17:55.838Z,2.20
2022-10-12T04:20:23.709Z,2.03
2022-10-12T04:22:51.473Z,2.72
2022-10-12T04:25:19.310Z,2.30
2022-10-12T04:27:47.459Z,2.45
2022-10-12T04:30:15.352Z,2.88
2022-10-12T04:32:44.593Z,2.40
2022-10-12T04:35:12.771Z,2.85
2022-10-12T04:37:40.866Z,2.65
2022-10-12T04:40:09.956Z,2.58
2022-10-12T04:42:37.771Z,2.65
2022-10-12T04:45:06.573Z,2.30
2022-10-12T04:47:35.871Z,2.78
2022-10-12T04:50:06.185Z,2.28
2022-10-12T04:52:34.099Z,2.78
2022-10-12T04:55:02.013Z,2.55
2022-10-12T04:57:29.784Z,2.60
2022-10-12T04:59:57.658Z,2.78
2022-10-12T05:02:25.438Z,2.90
2022-10-12T05:04:54.875Z,3.00
2022-10-12T05:07:23.907Z,2.40
2022-10-12T05:09:51.733Z,2.15
2022-10-12T05:12:19.625Z,2.83
2022-10-12T05:14:47.392Z,3.05
2022-10-12T05:17:15.606Z,2.83
2022-10-12T05:19:43.534Z,2.25
2022-10-12T05:22:11.782Z,3.00
2022-10-12T05:24:40.864Z,3.20
2022-10-12T05:27:08.737Z,2.85
2022-10-12T05:29:36.524Z,2.50
2022-10-12T05:32:04.348Z,2.42
2022-10-12T05:34:32.197Z,2.60
2022-10-12T05:37:00.097Z,2.53
2022-10-12T05:39:28.101Z,2.80
2022-10-12T05:41:57.281Z,2.40
2022-10-12T05:44:25.297Z,3.15
2022-10-12T05:46:53.182Z,2.92
2022-10-12T05:49:21.209Z,2.88
2022-10-12T05:51:49.069Z,2.40
2022-10-12T05:54:16.851Z,3.05
2022-10-12T05:56:44.686Z,3.38
2022-10-12T05:59:13.934Z,3.17
2022-10-12T06:01:41.862Z,3.63
2022-10-12T06:04:09.799Z,2.90
2022-10-12T06:06:37.714Z,4.03
2022-10-12T06:09:05.631Z,2.50
2022-10-12T06:11:36.415Z,3.83
2022-10-12T06:14:04.730Z,3.08
2022-10-12T06:16:34.339Z,3.83
2022-10-12T06:19:02.076Z,3.30
2022-10-12T06:21:34.211Z,3.45
2022-10-12T06:24:02.961Z,3.47
2022-10-12T06:26:30.722Z,3.13
2022-10-12T06:29:00.503Z,3.17
2022-10-12T06:31:28.604Z,3.30
2022-10-12T06:33:57.752Z,2.67
2022-10-12T06:36:25.554Z,3.53
2022-10-12T06:38:53.437Z,4.38
2022-10-12T06:41:21.320Z,3.95
2022-10-12T06:43:49.089Z,3.45
2022-10-12T06:46:16.940Z,3.08
2022-10-12T06:48:44.774Z,4.15
2022-10-12T06:51:13.868Z,4.05
2022-10-12T06:53:41.790Z,4.78
2022-10-12T06:56:10.702Z,4.70
2022-10-12T06:58:38.714Z,4.35
2022-10-12T07:01:08.366Z,3.50
2022-10-12T07:03:36.243Z,3.60
2022-10-12T07:06:09.188Z,4.00
2022-10-12T07:08:39.256Z,4.18
2022-10-12T07:11:09.376Z,4.28
2022-10-12T07:13:37.752Z,4.15
2022-10-12T07:16:05.778Z,4.80
2022-10-12T07:18:33.657Z,5.10
2022-10-12T07:21:02.682Z,3.67
2022-10-12T07:23:31.447Z,4.63
2022-10-12T07:26:00.775Z,4.05
2022-10-12T07:28:29.097Z,4.25
2022-10-12T07:31:02.239Z,4.30
2022-10-12T07:33:34.211Z,4.28
2022-10-12T07:36:13.778Z,4.13
2022-10-12T07:38:44.789Z,4.82
2022-10-12T07:41:14.514Z,7.90
2022-10-12T07:43:42.828Z,6.53
2022-10-12T07:46:10.919Z,7.85
2022-10-12T07:48:41.771Z,7.90
2022-10-12T07:51:11.898Z,9.88
2022-10-12T07:53:40.653Z,9.68
2022-10-12T07:56:15.996Z,8.00
2022-10-12T07:58:49.852Z,7.97
2022-10-12T08:01:18.688Z,6.88
2022-10-12T08:03:46.811Z,6.25
2022-10-12T08:06:17.039Z,5.28
2022-10-12T08:08:45.310Z,6.05
2022-10-12T08:11:14.521Z,5.68
2022-10-12T08:13:43.415Z,6.00
2022-10-12T08:16:15.431Z,5.63
2022-10-12T08:18:44.339Z,5.75
2022-10-12T08:21:14.124Z,5.95
2022-10-12T08:23:44.534Z,5.05
2022-10-12T08:26:13.654Z,7.05
2022-10-12T08:28:42.045Z,8.27
2022-10-12T08:31:13.037Z,6.72
2022-10-12T08:33:42.880Z,7.53
2022-10-12T08:36:12.829Z,6.57
2022-10-12T08:38:43.056Z,7.60
2022-10-12T08:41:36.588Z,7.30
2022-10-12T08:44:19.960Z,7.95
2022-10-12T08:46:50.034Z,7.60
2022-10-12T08:49:21.215Z,7.60
2022-10-12T08:51:52.647Z,13.25
2022-10-12T08:54:23.460Z,9.20
2022-10-12T08:56:54.942Z,8.73
2022-10-12T08:59:23.089Z,7.00
2022-10-12T09:02:06.778Z,9.20
2022-10-12T09:04:45.925Z,11.52
2022-10-12T09:07:19.361Z,8.82
2022-10-12T09:09:59.055Z,8.25
2022-10-12T09:12:39.202Z,8.00
2022-10-12T09:15:15.499Z,7.88
2022-10-12T09:17:48.480Z,7.85
2022-10-12T09:20:20.686Z,7.25
2022-10-12T09:22:50.904Z,8.15
2022-10-12T09:25:20.527Z,7.85
2022-10-12T09:27:48.712Z,7.57
2022-10-12T09:30:18.585Z,7.55
2022-10-12T09:33:13.766Z,7.03
2022-10-12T09:35:42.929Z,8.38
2022-10-12T09:38:12.208Z,8.57
2022-10-12T09:40:40.787Z,7.63
2022-10-12T09:43:12.289Z,8.07
2022-10-12T09:45:40.755Z,8.43
2022-10-12T09:48:16.134Z,8.43
2022-10-12T09:50:48.827Z,8.60
2022-10-12T09:53:29.491Z,8.10
2022-10-12T09:56:03.494Z,6.93
2022-10-12T09:58:34.258Z,7.05
2022-10-12T10:01:25.569Z,6.82
2022-10-12T10:04:11.866Z,7.45
2022-10-12T10:06:41.985Z,6.93
2022-10-12T10:09:33.539Z,5.97
2022-10-12T10:12:14.639Z,7.13
2022-10-12T10:14:44.919Z,5.78
2022-10-12T10:17:16.615Z,6.70
2022-10-12T10:19:53.041Z,7.18
2022-10-12T10:22:22.650Z,6.63
2022-10-12T10:25:00.259Z,6.22
2022-10-12T10:27:36.942Z,5.68
2022-10-12T10:30:33.882Z,6.75
2022-10-12T10:33:15.800Z,5.80
2022-10-12T10:35:58.063Z,7.05
2022-10-12T10:38:26.255Z,6.63
2022-10-12T10:40:58.298Z,6.32
2022-10-12T10:43:30.538Z,6.78
2022-10-12T10:46:00.808Z,6.22
2022-10-12T10:48:30.933Z,5.70
2022-10-12T10:51:02.651Z,6.40
2022-10-12T10:53:35.113Z,6.43
2022-10-12T10:56:06.959Z,5.65
2022-10-12T10:58:38.263Z,4.97
2022-10-12T11:01:14.575Z,5.32
2022-10-12T11:03:52.590Z,5.45
2022-10-12T11:06:38.923Z,4.95
2022-10-12T11:09:12.787Z,5.53
2022-10-12T11:11:43.121Z,6.22
2022-10-12T11:14:16.963Z,5.50
2022-10-12T11:16:49.967Z,4.97
2022-10-12T11:19:31.222Z,5.20
2022-10-12T11:22:04.487Z,5.35
2022-10-12T11:24:37.083Z,4.70
2022-10-12T11:27:12.023Z,5.15
2022-10-12T11:29:40.619Z,5.32
2022-10-12T11:32:22.775Z,6.65
2022-10-12T11:34:54.567Z,6.78
2022-10-12T11:37:32.632Z,7.72
2022-10-12T11:40:02.822Z,6.45
2022-10-12T11:42:34.188Z,7.47
2022-10-12T11:45:05.782Z,8.20
2022-10-12T11:47:39.067Z,7.18
2022-10-12T11:50:19.278Z,7.00
2022-10-12T11:52:51.604Z,7.90
2022-10-12T11:55:42.756Z,8.20
2022-10-12T11:58:24.367Z,8.45
2022-10-12T12:01:16.839Z,9.00
2022-10-12T12:04:40.394Z,8.38
2022-10-12T12:07:07.696Z,8.32
2022-10-12T12:09:41.037Z,7.13
2022-10-12T12:12:23.338Z,7.03
2022-10-12T12:15:03.679Z,6.95
2022-10-12T12:17:32.786Z,7.25
2022-10-12T12:20:01.654Z,6.00
2022-10-12T12:22:32.622Z,6.10
2022-10-12T12:25:17.745Z,7.05
2022-10-12T12:27:49.227Z,5.53
2022-10-12T12:30:39.543Z,6.65
2022-10-12T12:33:28.733Z,6.38
2022-10-12T12:35:59.934Z,7.43
2022-10-12T12:38:31.555Z,6.22
2022-10-12T12:41:11.891Z,6.90
2022-10-12T12:44:01.135Z,6.50
2022-10-12T12:50:01.279Z,6.82
2022-10-12T12:52:32.674Z,7.07
2022-10-12T12:55:30.939Z,7.32
2022-10-12T12:58:17.231Z,8.15
2022-10-12T13:00:56.490Z,7.57
2022-10-12T13:04:16.213Z,7.57
2022-10-12T13:07:23.643Z,7.25
2022-10-12T13:10:08.093Z,7.47
2022-10-12T13:12:56.109Z,7.22
2022-10-12T13:15:47.104Z,7.35
2022-10-12T13:18:47.649Z,7.00
2022-10-12T13:21:20.181Z,6.68
2022-10-12T13:23:51.758Z,6.47
2022-10-12T13:26:24.604Z,6.53
2022-10-12T13:28:54.806Z,6.53
2022-10-12T13:31:28.813Z,7.03
2022-10-12T13:34:06.994Z,5.50
2022-10-12T13:36:45.982Z,6.97
2022-10-12T13:39:17.748Z,6.70
2022-10-12T13:41:47.430Z,6.07
2022-10-12T13:44:24.886Z,6.03
2022-10-12T13:46:57.779Z,6.50
2022-10-12T13:49:27.824Z,5.30
2022-10-12T13:51:58.083Z,5.63
2022-10-12T13:54:28.223Z,5.85
2022-10-12T13:57:01.369Z,6.18
2022-10-12T13:59:34.364Z,5.93
2022-10-12T14:02:05.023Z,5.00
2022-10-12T14:04:35.239Z,6.88
2022-10-12T14:07:06.434Z,6.70
2022-10-12T14:09:42.623Z,5.70
2022-10-12T14:12:11.916Z,4.90
2022-10-12T14:14:41.610Z,4.85
2022-10-12T14:17:15.574Z,4.93
2022-10-12T14:19:46.749Z,3.80
2022-10-12T14:22:21.753Z,4.35
2022-10-12T14:24:50.659Z,5.00
2022-10-12T14:27:24.991Z,4.47
2022-10-12T14:29:57.562Z,3.58
2022-10-12T14:32:45.963Z,4.47
2022-10-12T14:35:25.657Z,4.18
2022-10-12T14:37:55.933Z,4.47
2022-10-12T14:40:38.446Z,4.00
2022-10-12T14:43:20.445Z,4.82
2022-10-12T14:45:49.414Z,5.20
2022-10-12T14:48:20.646Z,5.15
2022-10-12T14:50:48.507Z,3.88
2022-10-12T14:53:17.104Z,3.80
2022-10-12T14:55:45.178Z,4.55
2022-10-12T14:58:16.061Z,4.68
2022-10-12T15:00:44.787Z,3.92
2022-10-12T15:03:13.016Z,4.18
2022-10-12T15:05:45.411Z,4.65
2022-10-12T15:08:13.517Z,3.97
2022-10-12T15:10:43.509Z,3.90
2022-10-12T15:13:14.212Z,4.00
2022-10-12T15:15:45.299Z,4.70
2022-10-12T15:18:13.311Z,4.03
2022-10-12T15:20:49.391Z,4.80
2022-10-12T15:23:17.852Z,3.92
2022-10-12T15:25:50.347Z,4.05
2022-10-12T15:28:18.505Z,4.80
2022-10-12T15:31:12.119Z,4.93
2022-10-12T15:33:34.652Z,4.40
2022-10-12T15:36:03.898Z,3.95
2022-10-12T15:38:31.782Z,4.38
2022-10-12T15:40:59.704Z,4.10
2022-10-12T15:43:28.106Z,4.18
2022-10-12T15:45:57.391Z,4.50
2022-10-12T15:48:27.699Z,4.32
2022-10-12T15:50:55.491Z,5.10
2022-10-12T15:53:26.304Z,5.00
2022-10-12T15:55:55.628Z,5.43
2022-10-12T15:58:23.703Z,4.88
2022-10-12T16:00:52.088Z,5.72
2022-10-12T16:03:25.881Z,5.20
2022-10-12T16:05:54.766Z,5.35
2022-10-12T16:08:24.083Z,5.68
2022-10-12T16:10:52.332Z,5.38
2022-10-12T16:13:20.808Z,5.00
2022-10-12T16:15:48.681Z,5.97
2022-10-12T16:18:17.542Z,5.32
2022-10-12T16:20:49.743Z,5.85
2022-10-12T16:23:23.477Z,4.93
2022-10-12T16:25:53.163Z,4.25
2022-10-12T16:28:21.332Z,5.05
2022-10-12T16:30:49.658Z,5.90
2022-10-12T16:33:18.184Z,5.35
2022-10-12T16:35:46.256Z,4.82
2022-10-12T16:38:14.864Z,5.38
2022-10-12T16:40:43.800Z,5.00
2022-10-12T16:43:13.307Z,4.68
2022-10-12T16:45:41.135Z,3.92
2022-10-12T16:48:09.121Z,4.05
2022-10-12T16:50:40.724Z,5.28
2022-10-12T16:53:09.225Z,5.20
2022-10-12T16:55:39.726Z,5.03
2022-10-12T16:58:07.515Z,4.82
2022-10-12T17:00:36.916Z,4.65
2022-10-12T17:03:04.840Z,5.57
2022-10-12T17:05:32.694Z,4.95
2022-10-12T17:08:00.742Z,4.57
2022-10-12T17:10:28.713Z,5.57
2022-10-12T17:12:56.672Z,5.68
2022-10-12T17:15:24.449Z,6.25
2022-10-12T17:17:54.076Z,5.78
2022-10-12T17:20:21.888Z,4.78
2022-10-12T17:22:49.783Z,6.55
2022-10-12T17:25:17.715Z,5.03
2022-10-12T17:27:45.490Z,6.57
2022-10-12T17:30:13.612Z,5.68
2022-10-12T17:32:41.943Z,5.50
2022-10-12T17:35:11.835Z,5.25
2022-10-12T17:37:39.759Z,4.90
2022-10-12T17:40:09.584Z,4.50
2022-10-12T17:42:37.342Z,5.00
2022-10-12T17:45:06.009Z,5.10
2022-10-12T17:47:33.892Z,4.95
2022-10-12T17:50:01.622Z,4.95
2022-10-12T17:52:30.880Z,5.55
2022-10-12T17:54:59.058Z,5.00
2022-10-12T17:57:26.975Z,5.72
2022-10-12T17:59:54.834Z,6.25
2022-10-12T18:02:22.782Z,5.82
2022-10-12T18:04:50.572Z,5.50
2022-10-12T18:07:18.866Z,5.95
2022-10-12T18:09:48.384Z,6.18
2022-10-12T18:12:16.923Z,6.85
2022-10-12T18:14:45.087Z,6.20
2022-10-12T18:17:13.193Z,7.18
2022-10-12T18:19:41.478Z,6.38
2022-10-12T18:22:09.229Z,5.97
2022-10-12T18:24:37.202Z,5.95
2022-10-12T18:27:06.784Z,5.78
2022-10-12T18:29:35.231Z,6.63
2022-10-12T18:32:03.216Z,6.72
2022-10-12T18:34:36.352Z,6.38
2022-10-12T18:37:04.503Z,5.90
2022-10-12T18:39:32.337Z,6.22
2022-10-12T18:42:00.380Z,5.85
2022-10-12T18:44:29.930Z,7.07
2022-10-12T18:46:57.760Z,6.63
2022-10-12T18:49:25.964Z,7.07
2022-10-12T18:51:54.086Z,7.50
2022-10-12T18:54:22.339Z,5.90
2022-10-12T18:56:50.150Z,7.25
2022-10-12T18:59:19.250Z,6.65
2022-10-12T19:01:48.505Z,6.78
2022-10-12T19:04:16.608Z,6.47
2022-10-12T19:06:44.597Z,6.47
2022-10-12T19:09:15.389Z,6.25
2022-10-12T19:11:43.363Z,7.30
2022-10-12T19:14:14.799Z,7.03
2022-10-12T19:16:43.352Z,7.18
2022-10-12T19:19:20.489Z,7.30
2022-10-12T19:21:49.374Z,8.82
2022-10-12T19:24:17.200Z,7.28
2022-10-12T19:26:45.561Z,7.72
2022-10-12T19:29:13.916Z,7.78
2022-10-12T19:31:44.790Z,7.93
2022-10-12T19:34:16.386Z,7.47
2022-10-12T19:36:44.255Z,7.65
2022-10-12T19:39:16.093Z,7.03
2022-10-12T19:41:44.750Z,6.72
2022-10-12T19:44:13.146Z,7.32
2022-10-12T19:46:42.623Z,7.03
2022-10-12T19:49:14.652Z,5.97
2022-10-12T19:51:43.270Z,7.07
2022-10-12T19:54:13.425Z,6.47
2022-10-12T19:56:44.845Z,6.45
2022-10-12T19:59:13.297Z,5.40
2022-10-12T20:01:41.749Z,6.30
2022-10-12T20:04:12.131Z,6.13
2022-10-12T20:06:42.944Z,5.65
2022-10-12T20:09:11.806Z,5.85
2022-10-12T20:11:39.761Z,5.35
2022-10-12T20:14:08.481Z,5.50
2022-10-12T20:16:37.944Z,5.18
2022-10-12T20:19:07.042Z,5.45
2022-10-12T20:21:36.346Z,5.78
2022-10-12T20:24:08.418Z,5.63
2022-10-12T20:26:36.438Z,5.30
2022-10-12T20:29:04.698Z,5.95
2022-10-12T20:31:32.545Z,6.22
2022-10-12T20:34:00.389Z,5.38
2022-10-12T20:36:30.503Z,5.82
2022-10-12T20:38:59.008Z,5.30
2022-10-12T20:41:28.902Z,4.88
2022-10-12T20:43:57.412Z,5.32
2022-10-12T20:46:25.876Z,5.63
2022-10-12T20:48:58.744Z,4.55
2022-10-12T20:51:28.710Z,4.78
2022-10-12T20:53:59.269Z,4.63
2022-10-12T20:56:29.166Z,5.40
2022-10-12T20:58:57.104Z,5.18
2022-10-12T21:01:26.009Z,5.25
2022-10-12T21:03:54.224Z,4.30
2022-10-12T21:06:23.374Z,4.50
2022-10-12T21:08:52.261Z,4.60
2022-10-12T21:11:20.083Z,4.35
2022-10-12T21:13:49.865Z,4.40
2022-10-12T21:16:17.830Z,4.72
2022-10-12T21:18:45.642Z,4.93
2022-10-12T21:21:16.050Z,5.32
2022-10-12T21:23:45.470Z,4.75
2022-10-12T21:26:15.287Z,4.07
2022-10-12T21:28:43.848Z,4.35
2022-10-12T21:31:14.491Z,5.00
2022-10-12T21:33:42.961Z,4.25
2022-10-12T21:36:13.054Z,5.20
2022-10-12T21:38:42.088Z,4.35
2022-10-12T21:41:11.828Z,4.80
2022-10-12T21:43:44.363Z,4.95
2022-10-12T21:46:15.451Z,4.68
2022-10-12T21:48:43.444Z,4.78
2022-10-12T21:51:12.076Z,4.47
2022-10-12T21:53:41.010Z,4.78
2022-10-12T21:56:09.784Z,4.88
2022-10-12T21:58:37.663Z,5.25
2022-10-12T22:01:07.148Z,5.10
2022-10-12T22:03:36.809Z,5.30
2022-10-12T22:06:05.052Z,4.53
2022-10-12T22:08:33.392Z,4.78
2022-10-12T22:11:05.903Z,5.13
2022-10-12T22:13:33.851Z,5.63
2022-10-12T22:16:02.813Z,4.65
2022-10-12T22:18:30.680Z,5.57
2022-10-12T22:21:03.906Z,4.53
2022-10-12T22:24:09.293Z,4.68
2022-10-12T22:26:43.272Z,5.45
2022-10-12T22:29:17.605Z,5.25
2022-10-12T22:31:57.955Z,5.40
2022-10-12T22:34:32.989Z,5.03
2022-10-12T22:37:05.948Z,4.90
2022-10-12T22:39:44.286Z,5.32
2022-10-12T22:42:21.626Z,5.97
2022-10-12T22:44:54.777Z,5.85
2022-10-12T22:47:27.008Z,5.70
2022-10-12T22:50:00.683Z,5.40
2022-10-12T22:52:30.200Z,6.53
2022-10-12T22:55:07.307Z,6.00
2022-10-12T23:03:38.201Z,5.80
2022-10-12T23:06:10.390Z,6.28
2022-10-12T23:09:30.571Z,6.60
2022-10-12T23:12:28.920Z,6.20
2022-10-12T23:16:11.601Z,5.53
2022-10-12T23:29:38.878Z,5.93
2022-10-12T23:36:15.667Z,6.00
2022-10-12T23:39:23.884Z,7.40
2022-10-12T23:42:17.430Z,6.35
2022-10-12T23:45:38.337Z,5.72
2022-10-12T23:48:09.310Z,6.30
2022-10-12T23:51:19.697Z,7.43
2022-10-12T23:57:50.364Z,6.25
